sensor_id;sensor_type;location;lat;lon;timestamp;temperature;humidity
19586;DHT22;9939;49.246;9.106;2023-12-04T00:01:20;-3.50;99.90
19586;DHT22;9939;49.246;9.106;2023-12-04T00:03:46;-3.40;99.90
19586;DHT22;9939;49.246;9.106;2023-12-04T00:06:13;-3.50;99.90
19586;DHT22;9939;49.246;9.106;2023-12-04T00:08:40;-3.50;99.90
19586;DHT22;9939;49.246;9.106;2023-12-04T00:11:07;-3.50;99.90
19586;DHT22;9939;49.246;9.106;2023-12-04T00:13:34;-3.50;99.90
19586;DHT22;9939;49.246;9.106;2023-12-04T00:16:02;-3.50;99.90
19586;DHT22;9939;49.246;9.106;2023-12-04T00:18:29;-3.50;99.90
19586;DHT22;9939;49.246;9.106;2023-12-04T00:20:56;-3.40;99.90
19586;DHT22;9939;49.246;9.106;2023-12-04T00:23:23;-3.50;99.90
19586;DHT22;9939;49.246;9.106;2023-12-04T00:25:51;-3.50;99.90
19586;DHT22;9939;49.246;9.106;2023-12-04T00:28:18;-3.60;99.90
19586;DHT22;9939;49.246;9.106;2023-12-04T00:30:45;-3.70;99.90
19586;DHT22;9939;49.246;9.106;2023-12-04T00:33:12;-3.90;99.90
19586;DHT22;9939;49.246;9.106;2023-12-04T00:35:39;-3.80;99.90
19586;DHT22;9939;49.246;9.106;2023-12-04T00:38:06;-3.80;99.90
19586;DHT22;9939;49.246;9.106;2023-12-04T00:40:33;-3.70;99.90
19586;DHT22;9939;49.246;9.106;2023-12-04T00:43:00;-3.70;99.90
19586;DHT22;9939;49.246;9.106;2023-12-04T00:45:27;-3.80;99.90
19586;DHT22;9939;49.246;9.106;2023-12-04T00:47:54;-3.70;99.90
19586;DHT22;9939;49.246;9.106;2023-12-04T00:50:21;-3.70;99.90
19586;DHT22;9939;49.246;9.106;2023-12-04T00:52:48;-3.80;99.90
19586;DHT22;9939;49.246;9.106;2023-12-04T00:55:15;-3.80;99.90
19586;DHT22;9939;49.246;9.106;2023-12-04T00:57:42;-3.80;99.90
19586;DHT22;9939;49.246;9.106;2023-12-04T01:00:09;-3.70;99.90
19586;DHT22;9939;49.246;9.106;2023-12-04T01:02:36;-3.70;99.90
19586;DHT22;9939;49.246;9.106;2023-12-04T01:05:04;-3.80;99.90
19586;DHT22;9939;49.246;9.106;2023-12-04T01:07:31;-3.70;99.90
19586;DHT22;9939;49.246;9.106;2023-12-04T01:09:57;-3.70;99.90
19586;DHT22;9939;49.246;9.106;2023-12-04T01:12:24;-3.70;99.90
19586;DHT22;9939;49.246;9.106;2023-12-04T01:14:51;-3.70;99.90
19586;DHT22;9939;49.246;9.106;2023-12-04T01:17:18;-3.80;99.90
19586;DHT22;9939;49.246;9.106;2023-12-04T01:19:45;-3.80;99.90
19586;DHT22;9939;49.246;9.106;2023-12-04T01:22:13;-3.80;99.90
19586;DHT22;9939;49.246;9.106;2023-12-04T01:24:40;-3.70;99.90
19586;DHT22;9939;49.246;9.106;2023-12-04T01:27:07;-3.80;99.90
19586;DHT22;9939;49.246;9.106;2023-12-04T01:29:34;-3.80;99.90
19586;DHT22;9939;49.246;9.106;2023-12-04T01:32:01;-3.80;99.90
19586;DHT22;9939;49.246;9.106;2023-12-04T01:34:28;-3.80;99.90
19586;DHT22;9939;49.246;9.106;2023-12-04T01:36:55;-3.90;99.90
19586;DHT22;9939;49.246;9.106;2023-12-04T01:39:22;-3.90;99.90
19586;DHT22;9939;49.246;9.106;2023-12-04T01:41:49;-3.80;99.90
19586;DHT22;9939;49.246;9.106;2023-12-04T01:44:16;-3.80;99.90
19586;DHT22;9939;49.246;9.106;2023-12-04T01:46:44;-3.80;99.90
19586;DHT22;9939;49.246;9.106;2023-12-04T01:49:11;-3.80;99.90
19586;DHT22;9939;49.246;9.106;2023-12-04T01:51:38;-3.80;99.90
19586;DHT22;9939;49.246;9.106;2023-12-04T01:54:06;-3.80;99.90
19586;DHT22;9939;49.246;9.106;2023-12-04T01:56:34;-3.80;99.90
19586;DHT22;9939;49.246;9.106;2023-12-04T01:59:03;-3.80;99.90
19586;DHT22;9939;49.246;9.106;2023-12-04T02:01:30;-3.80;99.90
19586;DHT22;9939;49.246;9.106;2023-12-04T02:03:57;-3.70;99.90
19586;DHT22;9939;49.246;9.106;2023-12-04T02:06:27;-3.70;99.90
19586;DHT22;9939;49.246;9.106;2023-12-04T02:08:54;-3.80;99.90
19586;DHT22;9939;49.246;9.106;2023-12-04T02:11:21;-3.70;99.90
19586;DHT22;9939;49.246;9.106;2023-12-04T02:13:48;-3.70;99.90
19586;DHT22;9939;49.246;9.106;2023-12-04T02:16:16;-3.70;99.90
19586;DHT22;9939;49.246;9.106;2023-12-04T02:18:46;-3.80;99.90
19586;DHT22;9939;49.246;9.106;2023-12-04T02:21:13;-3.80;99.90
19586;DHT22;9939;49.246;9.106;2023-12-04T02:23:40;-3.80;99.90
19586;DHT22;9939;49.246;9.106;2023-12-04T02:26:14;-3.90;99.90
19586;DHT22;9939;49.246;9.106;2023-12-04T02:28:49;-3.90;99.90
19586;DHT22;9939;49.246;9.106;2023-12-04T02:31:18;-3.70;99.90
19586;DHT22;9939;49.246;9.106;2023-12-04T02:33:47;-3.80;99.90
19586;DHT22;9939;49.246;9.106;2023-12-04T02:36:15;-3.70;99.90
19586;DHT22;9939;49.246;9.106;2023-12-04T02:38:42;-3.70;99.90
19586;DHT22;9939;49.246;9.106;2023-12-04T02:41:09;-3.60;99.90
19586;DHT22;9939;49.246;9.106;2023-12-04T02:43:36;-3.70;99.90
19586;DHT22;9939;49.246;9.106;2023-12-04T02:46:04;-3.80;99.90
19586;DHT22;9939;49.246;9.106;2023-12-04T02:48:31;-3.80;99.90
19586;DHT22;9939;49.246;9.106;2023-12-04T02:50:58;-3.80;99.90
19586;DHT22;9939;49.246;9.106;2023-12-04T02:53:25;-3.90;99.90
19586;DHT22;9939;49.246;9.106;2023-12-04T02:55:52;-3.90;99.90
19586;DHT22;9939;49.246;9.106;2023-12-04T02:58:19;-3.90;99.90
19586;DHT22;9939;49.246;9.106;2023-12-04T03:00:46;-3.80;99.90
19586;DHT22;9939;49.246;9.106;2023-12-04T03:03:12;-3.80;99.90
19586;DHT22;9939;49.246;9.106;2023-12-04T03:05:39;-3.80;99.90
19586;DHT22;9939;49.246;9.106;2023-12-04T03:08:06;-3.70;99.90
19586;DHT22;9939;49.246;9.106;2023-12-04T03:10:33;-3.80;99.90
19586;DHT22;9939;49.246;9.106;2023-12-04T03:13:00;-3.80;99.90
19586;DHT22;9939;49.246;9.106;2023-12-04T03:15:27;-3.70;99.90
19586;DHT22;9939;49.246;9.106;2023-12-04T03:17:59;-3.70;99.90
19586;DHT22;9939;49.246;9.106;2023-12-04T03:20:27;-3.70;99.90
19586;DHT22;9939;49.246;9.106;2023-12-04T03:22:53;-3.60;99.90
19586;DHT22;9939;49.246;9.106;2023-12-04T03:25:20;-3.70;99.90
19586;DHT22;9939;49.246;9.106;2023-12-04T03:27:47;-3.80;99.90
19586;DHT22;9939;49.246;9.106;2023-12-04T03:30:14;-3.70;99.90
19586;DHT22;9939;49.246;9.106;2023-12-04T03:32:41;-3.70;99.90
19586;DHT22;9939;49.246;9.106;2023-12-04T03:35:08;-3.70;99.90
19586;DHT22;9939;49.246;9.106;2023-12-04T03:37:36;-3.80;99.90
19586;DHT22;9939;49.246;9.106;2023-12-04T03:40:03;-3.80;99.90
19586;DHT22;9939;49.246;9.106;2023-12-04T03:42:31;-3.80;99.90
19586;DHT22;9939;49.246;9.106;2023-12-04T03:44:58;-3.70;99.90
19586;DHT22;9939;49.246;9.106;2023-12-04T03:47:25;-3.70;99.90
19586;DHT22;9939;49.246;9.106;2023-12-04T03:49:53;-3.70;99.90
19586;DHT22;9939;49.246;9.106;2023-12-04T03:52:20;-3.60;99.90
19586;DHT22;9939;49.246;9.106;2023-12-04T03:54:47;-3.60;99.90
19586;DHT22;9939;49.246;9.106;2023-12-04T03:57:14;-3.60;99.90
19586;DHT22;9939;49.246;9.106;2023-12-04T03:59:41;-3.60;99.90
19586;DHT22;9939;49.246;9.106;2023-12-04T04:02:08;-3.70;99.90
19586;DHT22;9939;49.246;9.106;2023-12-04T04:04:35;-3.70;99.90
19586;DHT22;9939;49.246;9.106;2023-12-04T04:07:02;-3.60;99.90
19586;DHT22;9939;49.246;9.106;2023-12-04T04:09:29;-3.60;99.90
19586;DHT22;9939;49.246;9.106;2023-12-04T04:11:56;-3.60;99.90
19586;DHT22;9939;49.246;9.106;2023-12-04T04:14:23;-3.60;99.90
19586;DHT22;9939;49.246;9.106;2023-12-04T04:16:51;-3.70;99.90
19586;DHT22;9939;49.246;9.106;2023-12-04T04:19:18;-3.60;99.90
19586;DHT22;9939;49.246;9.106;2023-12-04T04:21:45;-3.50;99.90
19586;DHT22;9939;49.246;9.106;2023-12-04T04:24:12;-3.50;99.90
19586;DHT22;9939;49.246;9.106;2023-12-04T04:26:39;-3.50;99.90
19586;DHT22;9939;49.246;9.106;2023-12-04T04:29:05;-3.60;99.90
19586;DHT22;9939;49.246;9.106;2023-12-04T04:31:32;-3.50;99.90
19586;DHT22;9939;49.246;9.106;2023-12-04T04:33:59;-3.30;99.90
19586;DHT22;9939;49.246;9.106;2023-12-04T04:36:26;-3.40;99.90
19586;DHT22;9939;49.246;9.106;2023-12-04T04:38:53;-3.30;99.90
19586;DHT22;9939;49.246;9.106;2023-12-04T04:41:20;-3.40;99.90
19586;DHT22;9939;49.246;9.106;2023-12-04T04:43:47;-3.30;99.90
19586;DHT22;9939;49.246;9.106;2023-12-04T04:46:14;-3.40;99.90
19586;DHT22;9939;49.246;9.106;2023-12-04T04:48:41;-3.40;99.90
19586;DHT22;9939;49.246;9.106;2023-12-04T04:51:08;-3.40;99.90
19586;DHT22;9939;49.246;9.106;2023-12-04T04:53:35;-3.40;99.90
19586;DHT22;9939;49.246;9.106;2023-12-04T04:56:02;-3.30;99.90
19586;DHT22;9939;49.246;9.106;2023-12-04T04:58:29;-3.20;99.90
19586;DHT22;9939;49.246;9.106;2023-12-04T05:00:56;-3.20;99.90
19586;DHT22;9939;49.246;9.106;2023-12-04T05:03:23;-3.30;99.90
19586;DHT22;9939;49.246;9.106;2023-12-04T05:05:51;-3.30;99.90
19586;DHT22;9939;49.246;9.106;2023-12-04T05:08:18;-3.40;99.90
19586;DHT22;9939;49.246;9.106;2023-12-04T05:10:45;-3.40;99.90
19586;DHT22;9939;49.246;9.106;2023-12-04T05:13:12;-3.30;99.90
19586;DHT22;9939;49.246;9.106;2023-12-04T05:15:39;-3.20;99.90
19586;DHT22;9939;49.246;9.106;2023-12-04T05:18:06;-3.20;99.90
19586;DHT22;9939;49.246;9.106;2023-12-04T05:20:33;-3.30;99.90
19586;DHT22;9939;49.246;9.106;2023-12-04T05:23:01;-3.30;99.90
19586;DHT22;9939;49.246;9.106;2023-12-04T05:25:27;-3.30;99.90
19586;DHT22;9939;49.246;9.106;2023-12-04T05:28:04;-3.20;99.90
19586;DHT22;9939;49.246;9.106;2023-12-04T05:30:31;-3.40;99.90
19586;DHT22;9939;49.246;9.106;2023-12-04T05:32:58;-3.40;99.90
19586;DHT22;9939;49.246;9.106;2023-12-04T05:35:25;-3.40;99.90
19586;DHT22;9939;49.246;9.106;2023-12-04T05:37:52;-3.30;99.90
19586;DHT22;9939;49.246;9.106;2023-12-04T05:40:18;-3.30;99.90
19586;DHT22;9939;49.246;9.106;2023-12-04T05:42:46;-3.40;99.90
19586;DHT22;9939;49.246;9.106;2023-12-04T05:45:13;-3.40;99.90
19586;DHT22;9939;49.246;9.106;2023-12-04T05:47:40;-3.40;99.90
19586;DHT22;9939;49.246;9.106;2023-12-04T05:50:07;-3.50;99.90
19586;DHT22;9939;49.246;9.106;2023-12-04T05:52:34;-3.50;99.90
19586;DHT22;9939;49.246;9.106;2023-12-04T05:55:01;-3.50;99.90
19586;DHT22;9939;49.246;9.106;2023-12-04T05:57:29;-2.30;99.90
19586;DHT22;9939;49.246;9.106;2023-12-04T05:59:55;-3.50;99.90
19586;DHT22;9939;49.246;9.106;2023-12-04T06:02:23;-3.40;99.90
19586;DHT22;9939;49.246;9.106;2023-12-04T06:04:50;-3.50;99.90
19586;DHT22;9939;49.246;9.106;2023-12-04T06:07:17;-3.70;99.90
19586;DHT22;9939;49.246;9.106;2023-12-04T06:09:43;-3.60;99.90
19586;DHT22;9939;49.246;9.106;2023-12-04T06:12:10;-3.70;99.90
19586;DHT22;9939;49.246;9.106;2023-12-04T06:14:37;-3.60;99.90
19586;DHT22;9939;49.246;9.106;2023-12-04T06:17:04;-3.70;99.90
19586;DHT22;9939;49.246;9.106;2023-12-04T06:19:33;-3.70;99.90
19586;DHT22;9939;49.246;9.106;2023-12-04T06:22:00;-3.70;99.90
19586;DHT22;9939;49.246;9.106;2023-12-04T06:24:27;-3.60;99.90
19586;DHT22;9939;49.246;9.106;2023-12-04T06:26:54;-3.60;99.90
19586;DHT22;9939;49.246;9.106;2023-12-04T06:29:22;-3.60;99.90
19586;DHT22;9939;49.246;9.106;2023-12-04T06:31:49;-3.70;99.90
19586;DHT22;9939;49.246;9.106;2023-12-04T06:34:16;-3.50;99.90
19586;DHT22;9939;49.246;9.106;2023-12-04T06:36:43;-3.60;99.90
19586;DHT22;9939;49.246;9.106;2023-12-04T06:39:11;-3.60;99.90
19586;DHT22;9939;49.246;9.106;2023-12-04T06:41:42;-3.50;99.90
19586;DHT22;9939;49.246;9.106;2023-12-04T06:44:10;-3.50;99.90
19586;DHT22;9939;49.246;9.106;2023-12-04T06:46:37;-3.50;99.90
19586;DHT22;9939;49.246;9.106;2023-12-04T06:49:05;-3.60;99.90
19586;DHT22;9939;49.246;9.106;2023-12-04T06:51:35;-3.60;99.90
19586;DHT22;9939;49.246;9.106;2023-12-04T06:54:02;-3.60;99.90
19586;DHT22;9939;49.246;9.106;2023-12-04T06:56:29;-3.60;99.90
19586;DHT22;9939;49.246;9.106;2023-12-04T06:58:56;-3.50;99.90
19586;DHT22;9939;49.246;9.106;2023-12-04T07:01:23;-3.50;99.90
19586;DHT22;9939;49.246;9.106;2023-12-04T07:03:50;-3.40;99.90
19586;DHT22;9939;49.246;9.106;2023-12-04T07:06:17;-3.40;99.90
19586;DHT22;9939;49.246;9.106;2023-12-04T07:08:44;-3.20;99.90
19586;DHT22;9939;49.246;9.106;2023-12-04T07:11:11;-3.20;99.90
19586;DHT22;9939;49.246;9.106;2023-12-04T07:13:41;-3.20;99.90
19586;DHT22;9939;49.246;9.106;2023-12-04T07:16:09;-3.10;99.90
19586;DHT22;9939;49.246;9.106;2023-12-04T07:18:36;-3.20;99.90
19586;DHT22;9939;49.246;9.106;2023-12-04T07:21:03;-3.10;99.90
19586;DHT22;9939;49.246;9.106;2023-12-04T07:23:30;-3.00;99.90
19586;DHT22;9939;49.246;9.106;2023-12-04T07:25:57;-2.90;99.90
19586;DHT22;9939;49.246;9.106;2023-12-04T07:28:24;-3.00;99.90
19586;DHT22;9939;49.246;9.106;2023-12-04T07:30:51;-2.80;99.90
19586;DHT22;9939;49.246;9.106;2023-12-04T07:33:18;-2.80;99.90
19586;DHT22;9939;49.246;9.106;2023-12-04T07:35:46;-2.80;99.90
19586;DHT22;9939;49.246;9.106;2023-12-04T07:38:13;-2.80;99.90
19586;DHT22;9939;49.246;9.106;2023-12-04T07:40:40;-2.60;99.90
19586;DHT22;9939;49.246;9.106;2023-12-04T07:43:07;-2.60;99.90
19586;DHT22;9939;49.246;9.106;2023-12-04T07:45:34;-2.60;99.90
19586;DHT22;9939;49.246;9.106;2023-12-04T07:48:01;-2.70;99.90
19586;DHT22;9939;49.246;9.106;2023-12-04T07:50:28;-2.50;99.90
19586;DHT22;9939;49.246;9.106;2023-12-04T07:52:55;-2.40;99.90
19586;DHT22;9939;49.246;9.106;2023-12-04T07:55:22;-2.50;99.90
19586;DHT22;9939;49.246;9.106;2023-12-04T07:57:49;-2.40;99.90
19586;DHT22;9939;49.246;9.106;2023-12-04T08:00:18;-2.30;99.90
19586;DHT22;9939;49.246;9.106;2023-12-04T08:02:44;-2.30;99.90
19586;DHT22;9939;49.246;9.106;2023-12-04T08:05:12;-2.20;99.90
19586;DHT22;9939;49.246;9.106;2023-12-04T08:07:40;-2.20;99.90
19586;DHT22;9939;49.246;9.106;2023-12-04T08:10:07;-2.20;99.90
19586;DHT22;9939;49.246;9.106;2023-12-04T08:12:35;-2.00;99.90
19586;DHT22;9939;49.246;9.106;2023-12-04T08:15:03;-1.90;99.90
19586;DHT22;9939;49.246;9.106;2023-12-04T08:17:30;-1.90;99.90
19586;DHT22;9939;49.246;9.106;2023-12-04T08:19:57;-1.70;99.90
19586;DHT22;9939;49.246;9.106;2023-12-04T08:22:25;-1.90;99.90
19586;DHT22;9939;49.246;9.106;2023-12-04T08:24:52;-1.90;99.90
19586;DHT22;9939;49.246;9.106;2023-12-04T08:27:18;-1.90;99.90
19586;DHT22;9939;49.246;9.106;2023-12-04T08:29:45;-1.90;99.90
19586;DHT22;9939;49.246;9.106;2023-12-04T08:32:12;-1.80;99.90
19586;DHT22;9939;49.246;9.106;2023-12-04T08:34:39;-1.80;99.90
19586;DHT22;9939;49.246;9.106;2023-12-04T08:37:06;-1.70;99.90
19586;DHT22;9939;49.246;9.106;2023-12-04T08:39:33;-1.60;99.90
19586;DHT22;9939;49.246;9.106;2023-12-04T08:42:01;-1.30;99.90
19586;DHT22;9939;49.246;9.106;2023-12-04T08:44:34;-1.30;99.90
19586;DHT22;9939;49.246;9.106;2023-12-04T08:47:01;-1.40;99.90
19586;DHT22;9939;49.246;9.106;2023-12-04T08:49:28;-1.30;99.90
19586;DHT22;9939;49.246;9.106;2023-12-04T08:52:09;-1.30;99.90
19586;DHT22;9939;49.246;9.106;2023-12-04T08:54:39;-1.20;99.90
19586;DHT22;9939;49.246;9.106;2023-12-04T08:57:08;-1.20;99.90
19586;DHT22;9939;49.246;9.106;2023-12-04T08:59:35;-1.20;99.90
19586;DHT22;9939;49.246;9.106;2023-12-04T09:02:04;-1.00;99.90
19586;DHT22;9939;49.246;9.106;2023-12-04T09:04:31;-1.00;99.90
19586;DHT22;9939;49.246;9.106;2023-12-04T09:06:59;-1.10;99.90
19586;DHT22;9939;49.246;9.106;2023-12-04T09:09:29;-1.00;99.90
19586;DHT22;9939;49.246;9.106;2023-12-04T09:11:57;-1.00;99.90
19586;DHT22;9939;49.246;9.106;2023-12-04T09:14:23;-1.20;99.90
19586;DHT22;9939;49.246;9.106;2023-12-04T09:16:50;-1.10;99.90
19586;DHT22;9939;49.246;9.106;2023-12-04T09:19:17;-1.10;99.90
19586;DHT22;9939;49.246;9.106;2023-12-04T09:21:44;-1.00;99.90
19586;DHT22;9939;49.246;9.106;2023-12-04T09:24:11;-0.80;99.90
19586;DHT22;9939;49.246;9.106;2023-12-04T09:26:40;-0.80;99.90
19586;DHT22;9939;49.246;9.106;2023-12-04T09:29:07;-0.70;99.90
19586;DHT22;9939;49.246;9.106;2023-12-04T09:31:35;-0.80;99.90
19586;DHT22;9939;49.246;9.106;2023-12-04T09:34:02;-0.80;99.90
19586;DHT22;9939;49.246;9.106;2023-12-04T09:36:29;-0.80;99.90
19586;DHT22;9939;49.246;9.106;2023-12-04T09:38:58;-0.90;99.90
19586;DHT22;9939;49.246;9.106;2023-12-04T09:41:25;-0.80;99.90
19586;DHT22;9939;49.246;9.106;2023-12-04T09:43:53;-0.70;99.90
19586;DHT22;9939;49.246;9.106;2023-12-04T09:46:20;-0.70;99.90
19586;DHT22;9939;49.246;9.106;2023-12-04T09:48:48;-0.80;99.90
19586;DHT22;9939;49.246;9.106;2023-12-04T09:51:18;-0.80;99.90
19586;DHT22;9939;49.246;9.106;2023-12-04T09:53:47;-0.80;99.90
19586;DHT22;9939;49.246;9.106;2023-12-04T09:56:15;-0.70;99.90
19586;DHT22;9939;49.246;9.106;2023-12-04T09:58:43;-0.70;99.90
19586;DHT22;9939;49.246;9.106;2023-12-04T10:01:11;-0.60;99.90
19586;DHT22;9939;49.246;9.106;2023-12-04T10:03:40;-0.90;99.90
19586;DHT22;9939;49.246;9.106;2023-12-04T10:06:08;-0.90;99.90
19586;DHT22;9939;49.246;9.106;2023-12-04T10:08:35;-0.90;99.90
19586;DHT22;9939;49.246;9.106;2023-12-04T10:11:02;-0.80;99.90
19586;DHT22;9939;49.246;9.106;2023-12-04T10:13:29;-0.90;99.90
19586;DHT22;9939;49.246;9.106;2023-12-04T10:16:33;-0.90;99.90
19586;DHT22;9939;49.246;9.106;2023-12-04T10:19:25;-0.90;99.90
19586;DHT22;9939;49.246;9.106;2023-12-04T10:21:59;-0.80;99.90
19586;DHT22;9939;49.246;9.106;2023-12-04T10:24:29;-0.90;99.90
19586;DHT22;9939;49.246;9.106;2023-12-04T10:26:56;-0.80;99.90
19586;DHT22;9939;49.246;9.106;2023-12-04T10:29:27;-0.70;99.90
19586;DHT22;9939;49.246;9.106;2023-12-04T10:31:54;-0.50;99.90
19586;DHT22;9939;49.246;9.106;2023-12-04T10:34:22;-0.40;99.90
19586;DHT22;9939;49.246;9.106;2023-12-04T10:36:53;-0.30;99.90
19586;DHT22;9939;49.246;9.106;2023-12-04T10:39:20;-0.10;99.90
19586;DHT22;9939;49.246;9.106;2023-12-04T10:41:59;0.00;99.90
19586;DHT22;9939;49.246;9.106;2023-12-04T10:44:27;0.00;99.90
19586;DHT22;9939;49.246;9.106;2023-12-04T10:46:56;0.00;99.90
19586;DHT22;9939;49.246;9.106;2023-12-04T10:49:28;0.10;99.90
19586;DHT22;9939;49.246;9.106;2023-12-04T10:51:58;0.20;99.90
19586;DHT22;9939;49.246;9.106;2023-12-04T10:54:26;0.00;99.90
19586;DHT22;9939;49.246;9.106;2023-12-04T10:56:58;0.10;99.90
19586;DHT22;9939;49.246;9.106;2023-12-04T10:59:28;0.00;99.90
19586;DHT22;9939;49.246;9.106;2023-12-04T11:02:01;-0.20;99.90
19586;DHT22;9939;49.246;9.106;2023-12-04T11:04:31;0.00;99.90
19586;DHT22;9939;49.246;9.106;2023-12-04T11:07:00;0.30;99.90
19586;DHT22;9939;49.246;9.106;2023-12-04T11:09:29;0.60;99.90
19586;DHT22;9939;49.246;9.106;2023-12-04T11:12:00;0.40;99.90
19586;DHT22;9939;49.246;9.106;2023-12-04T11:14:37;0.30;99.90
19586;DHT22;9939;49.246;9.106;2023-12-04T11:17:12;0.40;99.90
19586;DHT22;9939;49.246;9.106;2023-12-04T11:19:57;0.30;99.90
19586;DHT22;9939;49.246;9.106;2023-12-04T11:22:26;0.40;99.90
19586;DHT22;9939;49.246;9.106;2023-12-04T11:24:54;0.30;99.90
19586;DHT22;9939;49.246;9.106;2023-12-04T11:27:22;0.20;99.90
19586;DHT22;9939;49.246;9.106;2023-12-04T11:29:50;0.20;99.90
19586;DHT22;9939;49.246;9.106;2023-12-04T11:32:18;0.20;99.90
19586;DHT22;9939;49.246;9.106;2023-12-04T11:34:54;0.10;99.90
19586;DHT22;9939;49.246;9.106;2023-12-04T11:37:22;0.10;99.90
19586;DHT22;9939;49.246;9.106;2023-12-04T11:39:50;0.00;99.90
19586;DHT22;9939;49.246;9.106;2023-12-04T11:42:24;-0.20;99.90
19586;DHT22;9939;49.246;9.106;2023-12-04T11:44:58;-0.10;99.90
19586;DHT22;9939;49.246;9.106;2023-12-04T11:47:28;-0.30;99.90
19586;DHT22;9939;49.246;9.106;2023-12-04T11:49:55;-0.40;99.90
19586;DHT22;9939;49.246;9.106;2023-12-04T11:52:33;-0.20;99.90
19586;DHT22;9939;49.246;9.106;2023-12-04T11:55:03;-0.20;99.90
19586;DHT22;9939;49.246;9.106;2023-12-04T11:57:36;-0.10;99.90
19586;DHT22;9939;49.246;9.106;2023-12-04T12:05:39;0.10;99.90
19586;DHT22;9939;49.246;9.106;2023-12-04T12:08:09;0.40;99.90
19586;DHT22;9939;49.246;9.106;2023-12-04T12:10:36;0.50;99.90
19586;DHT22;9939;49.246;9.106;2023-12-04T12:13:03;0.40;99.90
19586;DHT22;9939;49.246;9.106;2023-12-04T12:15:32;0.40;99.90
19586;DHT22;9939;49.246;9.106;2023-12-04T12:18:00;0.40;99.90
19586;DHT22;9939;49.246;9.106;2023-12-04T12:20:27;0.30;99.90
19586;DHT22;9939;49.246;9.106;2023-12-04T12:22:54;0.10;99.90
19586;DHT22;9939;49.246;9.106;2023-12-04T12:25:21;-0.10;99.90
19586;DHT22;9939;49.246;9.106;2023-12-04T12:27:50;-0.20;99.90
19586;DHT22;9939;49.246;9.106;2023-12-04T12:30:17;-0.20;99.90
19586;DHT22;9939;49.246;9.106;2023-12-04T12:32:44;-0.20;99.90
19586;DHT22;9939;49.246;9.106;2023-12-04T12:35:11;-0.30;99.90
19586;DHT22;9939;49.246;9.106;2023-12-04T12:37:39;-0.40;99.90
19586;DHT22;9939;49.246;9.106;2023-12-04T12:40:06;-0.40;99.90
19586;DHT22;9939;49.246;9.106;2023-12-04T12:42:36;-0.40;99.90
19586;DHT22;9939;49.246;9.106;2023-12-04T12:45:09;-0.50;99.90
19586;DHT22;9939;49.246;9.106;2023-12-04T12:47:41;-0.50;99.90
19586;DHT22;9939;49.246;9.106;2023-12-04T12:50:09;-0.30;99.90
19586;DHT22;9939;49.246;9.106;2023-12-04T12:52:42;-0.50;99.90
19586;DHT22;9939;49.246;9.106;2023-12-04T12:55:10;-0.40;99.90
19586;DHT22;9939;49.246;9.106;2023-12-04T12:57:37;-0.50;99.90
19586;DHT22;9939;49.246;9.106;2023-12-04T13:00:06;-0.70;99.90
19586;DHT22;9939;49.246;9.106;2023-12-04T13:02:35;-0.60;99.90
19586;DHT22;9939;49.246;9.106;2023-12-04T13:05:03;-0.70;99.90
19586;DHT22;9939;49.246;9.106;2023-12-04T13:07:31;-0.80;99.90
19586;DHT22;9939;49.246;9.106;2023-12-04T13:09:58;-0.80;99.90
19586;DHT22;9939;49.246;9.106;2023-12-04T13:12:25;-0.80;99.90
19586;DHT22;9939;49.246;9.106;2023-12-04T13:14:52;-0.80;99.90
19586;DHT22;9939;49.246;9.106;2023-12-04T13:17:19;-0.60;99.90
19586;DHT22;9939;49.246;9.106;2023-12-04T13:19:46;-0.50;99.90
19586;DHT22;9939;49.246;9.106;2023-12-04T13:22:13;-0.50;99.90
19586;DHT22;9939;49.246;9.106;2023-12-04T13:24:40;-0.50;99.90
19586;DHT22;9939;49.246;9.106;2023-12-04T13:27:08;-0.30;99.90
19586;DHT22;9939;49.246;9.106;2023-12-04T13:29:35;-0.40;99.90
19586;DHT22;9939;49.246;9.106;2023-12-04T13:32:03;-0.50;99.90
19586;DHT22;9939;49.246;9.106;2023-12-04T13:34:31;-0.60;99.90
19586;DHT22;9939;49.246;9.106;2023-12-04T13:36:58;-0.50;99.90
19586;DHT22;9939;49.246;9.106;2023-12-04T13:39:25;-0.40;99.90
19586;DHT22;9939;49.246;9.106;2023-12-04T13:42:14;-0.40;99.90
19586;DHT22;9939;49.246;9.106;2023-12-04T13:45:01;-0.50;99.90
19586;DHT22;9939;49.246;9.106;2023-12-04T13:47:28;-0.50;99.90
19586;DHT22;9939;49.246;9.106;2023-12-04T13:49:56;-0.40;99.90
19586;DHT22;9939;49.246;9.106;2023-12-04T13:52:25;-0.40;99.90
19586;DHT22;9939;49.246;9.106;2023-12-04T13:54:54;-0.30;99.90
19586;DHT22;9939;49.246;9.106;2023-12-04T13:57:21;-0.40;99.90
19586;DHT22;9939;49.246;9.106;2023-12-04T13:59:54;-0.40;99.90
19586;DHT22;9939;49.246;9.106;2023-12-04T14:02:25;-0.30;99.90
19586;DHT22;9939;49.246;9.106;2023-12-04T14:04:52;-0.20;99.90
19586;DHT22;9939;49.246;9.106;2023-12-04T14:07:19;-0.20;99.90
19586;DHT22;9939;49.246;9.106;2023-12-04T14:09:47;-0.20;99.90
19586;DHT22;9939;49.246;9.106;2023-12-04T14:12:14;-0.10;99.90
19586;DHT22;9939;49.246;9.106;2023-12-04T14:14:43;-0.10;99.90
19586;DHT22;9939;49.246;9.106;2023-12-04T14:17:10;0.00;99.90
19586;DHT22;9939;49.246;9.106;2023-12-04T14:19:38;-0.10;99.90
19586;DHT22;9939;49.246;9.106;2023-12-04T14:22:06;-0.10;99.90
19586;DHT22;9939;49.246;9.106;2023-12-04T14:24:33;0.00;99.90
19586;DHT22;9939;49.246;9.106;2023-12-04T14:27:02;0.00;99.90
19586;DHT22;9939;49.246;9.106;2023-12-04T14:29:29;-0.10;99.90
19586;DHT22;9939;49.246;9.106;2023-12-04T14:31:56;-0.20;99.90
19586;DHT22;9939;49.246;9.106;2023-12-04T14:34:23;-0.10;99.90
19586;DHT22;9939;49.246;9.106;2023-12-04T14:36:51;0.00;99.90
19586;DHT22;9939;49.246;9.106;2023-12-04T14:39:18;-0.10;99.90
19586;DHT22;9939;49.246;9.106;2023-12-04T14:41:45;-0.10;99.90
19586;DHT22;9939;49.246;9.106;2023-12-04T14:44:12;-0.10;99.90
19586;DHT22;9939;49.246;9.106;2023-12-04T14:46:40;0.00;99.90
19586;DHT22;9939;49.246;9.106;2023-12-04T14:49:08;0.10;99.90
19586;DHT22;9939;49.246;9.106;2023-12-04T14:51:35;0.00;99.90
19586;DHT22;9939;49.246;9.106;2023-12-04T14:54:02;0.10;99.90
19586;DHT22;9939;49.246;9.106;2023-12-04T14:56:42;0.20;99.90
19586;DHT22;9939;49.246;9.106;2023-12-04T14:59:28;0.10;99.90
19586;DHT22;9939;49.246;9.106;2023-12-04T15:02:13;0.20;99.90
19586;DHT22;9939;49.246;9.106;2023-12-04T15:04:59;0.10;99.90
19586;DHT22;9939;49.246;9.106;2023-12-04T15:07:44;0.20;99.90
19586;DHT22;9939;49.246;9.106;2023-12-04T15:10:14;0.10;99.90
19586;DHT22;9939;49.246;9.106;2023-12-04T15:12:50;0.10;99.90
19586;DHT22;9939;49.246;9.106;2023-12-04T15:15:23;0.10;99.90
19586;DHT22;9939;49.246;9.106;2023-12-04T15:17:54;0.00;99.90
19586;DHT22;9939;49.246;9.106;2023-12-04T15:20:44;-0.10;99.90
19586;DHT22;9939;49.246;9.106;2023-12-04T15:23:11;0.00;99.90
19586;DHT22;9939;49.246;9.106;2023-12-04T15:25:38;-0.10;99.90
19586;DHT22;9939;49.246;9.106;2023-12-04T15:28:07;-0.10;99.90
19586;DHT22;9939;49.246;9.106;2023-12-04T15:30:34;-0.10;99.90
19586;DHT22;9939;49.246;9.106;2023-12-04T15:33:01;0.00;99.90
19586;DHT22;9939;49.246;9.106;2023-12-04T15:35:29;-0.10;99.90
19586;DHT22;9939;49.246;9.106;2023-12-04T15:37:56;-0.10;99.90
19586;DHT22;9939;49.246;9.106;2023-12-04T15:40:23;-0.20;99.90
19586;DHT22;9939;49.246;9.106;2023-12-04T15:42:49;-0.10;99.90
19586;DHT22;9939;49.246;9.106;2023-12-04T15:45:17;0.00;99.90
19586;DHT22;9939;49.246;9.106;2023-12-04T15:47:44;-0.10;99.90
19586;DHT22;9939;49.246;9.106;2023-12-04T15:50:11;0.00;99.90
19586;DHT22;9939;49.246;9.106;2023-12-04T15:52:38;0.00;99.90
19586;DHT22;9939;49.246;9.106;2023-12-04T15:55:08;-0.10;99.90
19586;DHT22;9939;49.246;9.106;2023-12-04T15:57:38;0.00;99.90
19586;DHT22;9939;49.246;9.106;2023-12-04T16:00:06;0.10;99.90